createdAt,value
2023-04-17T00:02:30.097Z,15.10
2023-04-17T00:05:02.760Z,8.60
2023-04-17T00:07:35.215Z,13.60
2023-04-17T00:10:09.683Z,9.50
2023-04-17T00:12:42.186Z,12.00
2023-04-17T00:15:14.962Z,9.90
2023-04-17T00:17:47.361Z,11.80
2023-04-17T00:20:19.969Z,10.10
2023-04-17T00:22:52.247Z,9.60
2023-04-17T00:25:24.760Z,8.60
2023-04-17T00:27:57.241Z,10.30
2023-04-17T00:30:29.564Z,8.60
2023-04-17T00:33:02.044Z,8.90
2023-04-17T00:35:34.904Z,8.40
2023-04-17T00:38:08.081Z,8.40
2023-04-17T00:40:40.609Z,9.90
2023-04-17T00:43:13.169Z,10.40
2023-04-17T00:45:47.513Z,8.40
2023-04-17T00:48:24.248Z,7.60
2023-04-17T00:51:02.292Z,10.80
2023-04-17T00:53:35.405Z,7.60
2023-04-17T00:56:09.759Z,9.40
2023-04-17T00:58:43.454Z,9.60
2023-04-17T01:01:15.944Z,9.20
2023-04-17T01:03:48.675Z,7.10
2023-04-17T01:06:21.313Z,9.60
2023-04-17T01:08:53.731Z,8.40
2023-04-17T01:11:26.200Z,8.20
2023-04-17T01:13:58.538Z,9.00
2023-04-17T01:16:31.223Z,8.10
2023-04-17T01:19:03.885Z,9.10
2023-04-17T01:21:36.344Z,9.90
2023-04-17T01:24:10.932Z,10.00
2023-04-17T01:26:43.969Z,10.30
2023-04-17T01:29:16.277Z,11.40
2023-04-17T01:31:48.610Z,9.40
2023-04-17T01:34:21.199Z,9.90
2023-04-17T01:36:53.608Z,12.90
2023-04-17T01:39:25.938Z,9.70
2023-04-17T01:41:58.324Z,12.00
2023-04-17T01:44:30.688Z,11.40
2023-04-17T01:47:02.950Z,12.20
2023-04-17T01:49:35.643Z,12.00
2023-04-17T01:52:08.202Z,10.20
2023-04-17T01:54:40.590Z,15.80
2023-04-17T01:57:13.095Z,10.80
2023-04-17T01:59:45.533Z,10.50
2023-04-17T02:02:18.104Z,9.90
2023-04-17T02:04:50.688Z,10.30
2023-04-17T02:07:22.974Z,10.70
2023-04-17T02:09:55.367Z,8.40
2023-04-17T02:12:27.682Z,11.00
2023-04-17T02:15:01.379Z,11.20
2023-04-17T02:17:34.038Z,8.60
2023-04-17T02:20:09.245Z,9.50
2023-04-17T02:22:41.694Z,10.30
2023-04-17T02:25:14.163Z,8.40
2023-04-17T02:27:46.562Z,8.90
2023-04-17T02:30:19.085Z,9.50
2023-04-17T02:32:53.295Z,7.60
2023-04-17T02:35:27.538Z,8.20
2023-04-17T02:37:59.843Z,8.70
2023-04-17T02:40:32.195Z,7.50
2023-04-17T02:43:04.477Z,6.90
2023-04-17T02:45:37.073Z,6.90
2023-04-17T02:48:09.744Z,9.50
2023-04-17T02:50:42.172Z,7.40
2023-04-17T02:53:14.579Z,7.20
2023-04-17T02:55:46.958Z,13.40
2023-04-17T02:58:19.221Z,11.30
2023-04-17T03:00:51.767Z,7.80
2023-04-17T03:03:24.301Z,8.20
2023-04-17T03:05:56.895Z,7.60
2023-04-17T03:08:32.597Z,10.20
2023-04-17T03:11:05.676Z,7.20
2023-04-17T03:13:39.102Z,7.40
2023-04-17T03:16:11.715Z,7.70
2023-04-17T03:18:44.245Z,8.20
2023-04-17T03:21:16.598Z,8.00
2023-04-17T03:23:48.874Z,7.80
2023-04-17T03:26:21.716Z,10.20
2023-04-17T03:28:54.043Z,8.00
2023-04-17T03:31:28.063Z,9.30
2023-04-17T03:34:00.482Z,8.00
2023-04-17T03:36:32.889Z,11.40
2023-04-17T03:39:05.170Z,7.80
2023-04-17T03:41:38.752Z,9.00
2023-04-17T03:44:11.310Z,9.80
2023-04-17T03:46:43.735Z,12.50
2023-04-17T03:49:16.217Z,8.80
2023-04-17T03:51:48.590Z,9.50
2023-04-17T03:54:20.906Z,10.10
2023-04-17T03:56:53.264Z,13.30
2023-04-17T03:59:25.799Z,11.90
2023-04-17T04:01:58.370Z,10.30
2023-04-17T04:04:31.125Z,10.70
2023-04-17T04:07:03.868Z,10.80
2023-04-17T04:09:36.289Z,13.50
2023-04-17T04:12:08.822Z,13.90
2023-04-17T04:14:42.028Z,12.80
2023-04-17T04:17:14.732Z,12.00
2023-04-17T04:19:48.188Z,14.20
2023-04-17T04:22:21.480Z,11.10
2023-04-17T04:24:54.568Z,13.90
2023-04-17T04:27:27.913Z,11.40
2023-04-17T04:30:02.219Z,11.50
2023-04-17T04:32:34.788Z,13.00
2023-04-17T04:35:08.716Z,10.80
2023-04-17T04:37:43.025Z,11.40
2023-04-17T04:40:15.954Z,11.50
2023-04-17T04:42:49.862Z,11.70
2023-04-17T04:45:22.269Z,9.10
2023-04-17T04:47:54.577Z,8.10
2023-04-17T04:50:27.322Z,9.50
2023-04-17T04:52:59.579Z,10.10
2023-04-17T04:55:31.871Z,10.10
2023-04-17T04:58:04.296Z,10.80
2023-04-17T05:00:37.258Z,12.40
2023-04-17T05:03:09.889Z,11.60
2023-04-17T05:05:43.469Z,11.00
2023-04-17T05:08:16.063Z,8.90
2023-04-17T05:10:48.427Z,9.00
2023-04-17T05:13:20.696Z,9.20
2023-04-17T05:15:53.239Z,11.10
2023-04-17T05:18:26.041Z,10.00
2023-04-17T05:20:58.598Z,11.30
2023-04-17T05:23:30.966Z,9.50
2023-04-17T05:26:03.351Z,13.50
2023-04-17T05:28:35.701Z,11.00
2023-04-17T05:31:08.431Z,11.80
2023-04-17T05:33:40.865Z,12.40
2023-04-17T05:36:13.335Z,13.60
2023-04-17T05:38:46.367Z,10.80
2023-04-17T05:41:19.001Z,10.10
2023-04-17T05:43:51.471Z,11.80
2023-04-17T05:46:24.035Z,11.90
2023-04-17T05:48:56.931Z,10.30
2023-04-17T05:51:31.448Z,13.10
2023-04-17T05:54:04.360Z,10.20
2023-04-17T05:56:36.891Z,9.90
2023-04-17T05:59:09.161Z,10.40
2023-04-17T06:01:41.589Z,13.30
2023-04-17T06:04:14.723Z,9.40
2023-04-17T06:06:47.596Z,10.90
2023-04-17T06:09:19.934Z,10.30
2023-04-17T06:11:52.324Z,15.50
2023-04-17T06:14:24.591Z,14.30
2023-04-17T06:16:56.963Z,9.20
2023-04-17T06:19:29.347Z,8.90
2023-04-17T06:22:01.780Z,8.20
2023-04-17T06:24:34.253Z,11.10
2023-04-17T06:27:06.745Z,9.30
2023-04-17T06:29:39.199Z,12.60
2023-04-17T06:32:11.514Z,9.90
2023-04-17T06:34:58.202Z,12.50
2023-04-17T06:37:32.022Z,10.40
2023-04-17T06:40:04.822Z,10.20
2023-04-17T06:42:37.290Z,10.00
2023-04-17T06:45:11.672Z,8.70
2023-04-17T06:47:46.736Z,7.00
2023-04-17T06:50:19.294Z,9.40
2023-04-17T06:52:51.696Z,6.80
2023-04-17T06:55:23.978Z,7.80
2023-04-17T06:57:56.337Z,8.30
2023-04-17T07:00:29.179Z,7.10
2023-04-17T07:03:01.820Z,8.90
2023-04-17T07:05:35.551Z,9.90
2023-04-17T07:08:08.699Z,8.40
2023-04-17T07:10:41.202Z,8.60
2023-04-17T07:13:13.466Z,7.60
2023-04-17T07:15:45.944Z,9.40
2023-04-17T07:18:18.723Z,10.10
2023-04-17T07:20:51.130Z,8.60
2023-04-17T07:23:23.642Z,8.70
2023-04-17T07:25:55.909Z,9.30
2023-04-17T07:28:28.156Z,9.60
2023-04-17T07:31:00.620Z,8.50
2023-04-17T07:33:33.087Z,10.50
2023-04-17T07:36:06.012Z,9.50
2023-04-17T07:38:40.809Z,7.40
2023-04-17T07:41:13.681Z,8.50
2023-04-17T07:43:46.184Z,7.60
2023-04-17T07:46:18.693Z,7.00
2023-04-17T07:48:51.516Z,6.70
2023-04-17T07:51:23.775Z,7.00
2023-04-17T07:53:56.834Z,6.20
2023-04-17T07:56:29.288Z,6.90
2023-04-17T07:59:02.592Z,6.50
2023-04-17T08:01:35.045Z,6.90
2023-04-17T08:04:08.063Z,5.80
2023-04-17T08:06:40.621Z,6.60
2023-04-17T08:09:13.430Z,6.50
2023-04-17T08:11:56.252Z,5.30
2023-04-17T08:14:29.219Z,7.90
2023-04-17T08:17:02.207Z,9.40
2023-04-17T08:19:34.927Z,8.70
2023-04-17T08:22:08.311Z,8.10
2023-04-17T08:24:40.745Z,8.80
2023-04-17T08:27:13.794Z,10.20
2023-04-17T08:29:46.717Z,9.60
2023-04-17T08:32:19.049Z,10.00
2023-04-17T08:34:51.464Z,10.20
2023-04-17T08:37:23.834Z,11.40
2023-04-17T08:39:56.951Z,10.90
2023-04-17T08:42:31.651Z,10.70
2023-04-17T08:45:07.747Z,11.50
2023-04-17T08:47:42.588Z,9.70
2023-04-17T08:50:17.097Z,8.80
2023-04-17T08:52:50.767Z,11.30
2023-04-17T08:55:25.620Z,10.80
2023-04-17T08:58:01.337Z,12.30
2023-04-17T09:00:36.013Z,10.40
2023-04-17T09:03:11.419Z,12.80
2023-04-17T09:05:46.398Z,9.10
2023-04-17T09:08:22.116Z,14.10
2023-04-17T09:10:56.532Z,12.60
2023-04-17T09:13:30.642Z,9.60
2023-04-17T09:16:13.910Z,11.40
2023-04-17T09:18:46.955Z,13.30
2023-04-17T09:21:20.772Z,13.10
2023-04-17T09:23:56.259Z,12.20
2023-04-17T09:26:33.381Z,13.10
2023-04-17T09:29:09.354Z,11.80
2023-04-17T09:31:43.780Z,12.30
2023-04-17T09:34:17.087Z,13.10
2023-04-17T09:36:55.922Z,12.10
2023-04-17T09:39:28.917Z,11.70
2023-04-17T09:42:06.246Z,11.50
2023-04-17T09:44:40.488Z,12.90
2023-04-17T09:47:14.151Z,12.10
2023-04-17T09:49:52.708Z,10.20
2023-04-17T09:52:25.629Z,11.40
2023-04-17T09:54:58.666Z,12.70
2023-04-17T09:57:31.479Z,10.10
2023-04-17T10:00:11.151Z,11.70
2023-04-17T10:02:45.504Z,11.40
2023-04-17T10:05:18.334Z,12.20
2023-04-17T10:07:50.949Z,11.60
2023-04-17T10:10:30.361Z,10.50
2023-04-17T10:13:05.990Z,13.30
2023-04-17T10:15:38.587Z,11.30
2023-04-17T10:18:24.858Z,11.00
2023-04-17T10:20:57.503Z,15.00
2023-04-17T10:23:32.186Z,12.60
2023-04-17T10:26:40.226Z,11.40
2023-04-17T10:29:13.496Z,11.40
2023-04-17T10:32:26.262Z,12.90
2023-04-17T10:35:01.024Z,12.40
2023-04-17T10:38:07.449Z,12.10
2023-04-17T10:40:40.726Z,13.20
2023-04-17T10:43:17.407Z,11.20
2023-04-17T10:45:57.826Z,8.90
2023-04-17T10:48:35.089Z,7.70
2023-04-17T10:51:38.150Z,7.30
2023-04-17T10:54:13.829Z,8.40
2023-04-17T10:56:48.553Z,12.40
2023-04-17T10:59:23.598Z,7.50
2023-04-17T11:02:04.983Z,8.30
2023-04-17T11:04:37.690Z,9.70
2023-04-17T11:07:10.121Z,8.10
2023-04-17T11:09:42.959Z,7.60
2023-04-17T11:12:15.708Z,6.60
2023-04-17T11:14:48.024Z,7.10
2023-04-17T11:17:22.738Z,9.40
2023-04-17T11:19:55.203Z,6.00
2023-04-17T11:22:33.919Z,6.70
2023-04-17T11:25:06.969Z,5.50
2023-04-17T11:27:41.136Z,6.00
2023-04-17T11:30:15.601Z,7.60
2023-04-17T11:32:48.378Z,7.40
2023-04-17T11:35:22.484Z,7.50
2023-04-17T11:38:21.987Z,6.40
2023-04-17T11:40:56.254Z,8.90
2023-04-17T11:43:29.983Z,7.70
2023-04-17T11:46:03.093Z,8.40
2023-04-17T11:48:36.649Z,8.20
2023-04-17T11:51:09.190Z,9.50
2023-04-17T11:53:49.373Z,8.90
2023-04-17T11:56:27.476Z,7.90
2023-04-17T11:59:00.592Z,8.40
2023-04-17T12:01:32.917Z,7.40
2023-04-17T12:04:20.519Z,10.10
2023-04-17T12:06:53.957Z,7.20
2023-04-17T12:09:31.298Z,8.30
2023-04-17T12:12:05.872Z,10.00
2023-04-17T12:14:38.384Z,9.90
2023-04-17T12:17:10.839Z,10.20
2023-04-17T12:19:45.205Z,10.70
2023-04-17T12:22:17.781Z,8.80
2023-04-17T12:24:50.114Z,9.40
2023-04-17T12:27:22.692Z,8.30
2023-04-17T12:29:55.223Z,10.00
2023-04-17T12:32:27.750Z,8.80
2023-04-17T12:35:00.160Z,9.80
2023-04-17T12:37:32.498Z,10.40
2023-04-17T12:40:05.018Z,9.20
2023-04-17T12:42:48.273Z,7.80
2023-04-17T12:45:21.749Z,6.40
2023-04-17T12:47:55.282Z,5.90
2023-04-17T12:50:27.625Z,6.40
2023-04-17T12:53:00.976Z,7.90
2023-04-17T12:55:33.495Z,8.40
2023-04-17T12:58:06.990Z,6.50
2023-04-17T13:00:40.087Z,7.00
2023-04-17T13:03:12.876Z,5.40
2023-04-17T13:05:45.697Z,5.70
2023-04-17T13:08:17.972Z,5.30
2023-04-17T13:10:50.292Z,5.60
2023-04-17T13:13:22.624Z,7.80
2023-04-17T13:15:55.087Z,5.60
2023-04-17T13:18:27.624Z,8.30
2023-04-17T13:21:00.471Z,7.50
2023-04-17T13:23:32.761Z,7.00
2023-04-17T13:26:05.112Z,6.80
2023-04-17T13:28:37.455Z,8.80
2023-04-17T13:31:10.135Z,8.90
2023-04-17T13:33:42.801Z,6.60
2023-04-17T13:36:15.456Z,8.50
2023-04-17T13:38:47.709Z,7.90
2023-04-17T13:41:20.143Z,8.00
2023-04-17T13:43:52.562Z,7.60
2023-04-17T13:46:25.648Z,6.40
2023-04-17T13:48:58.016Z,5.60
2023-04-17T13:51:31.763Z,8.40
2023-04-17T13:54:04.474Z,5.70
2023-04-17T13:56:37.082Z,8.00
2023-04-17T13:59:09.593Z,6.60
2023-04-17T14:01:41.927Z,5.10
2023-04-17T14:04:14.988Z,5.90
2023-04-17T14:06:50.499Z,7.30
2023-04-17T14:09:23.041Z,4.90
2023-04-17T14:11:55.537Z,5.70
2023-04-17T14:14:30.699Z,5.70
2023-04-17T14:17:03.087Z,5.50
2023-04-17T14:19:35.594Z,6.80
2023-04-17T14:22:07.978Z,5.00
2023-04-17T14:24:40.306Z,7.70
2023-04-17T14:27:12.612Z,7.50
2023-04-17T14:29:45.120Z,6.60
2023-04-17T14:32:17.598Z,6.70
2023-04-17T14:34:50.033Z,6.90
2023-04-17T14:37:22.495Z,7.90
2023-04-17T14:39:55.034Z,6.60
2023-04-17T14:42:27.470Z,6.50
2023-04-17T14:44:59.670Z,9.30
2023-04-17T14:47:32.094Z,6.50
2023-04-17T14:50:04.785Z,7.00
2023-04-17T14:52:37.107Z,7.60
2023-04-17T14:55:11.437Z,8.00
2023-04-17T14:57:43.950Z,7.90
2023-04-17T15:00:20.831Z,8.20
2023-04-17T15:02:53.484Z,7.70
2023-04-17T15:05:26.206Z,6.80
2023-04-17T15:08:00.244Z,8.70
2023-04-17T15:10:44.294Z,7.20
2023-04-17T15:13:22.774Z,6.60
2023-04-17T15:15:55.356Z,7.10
2023-04-17T15:18:27.648Z,7.60
2023-04-17T15:20:59.933Z,7.90
2023-04-17T15:23:34.734Z,7.20
2023-04-17T15:26:07.657Z,6.00
2023-04-17T15:28:40.119Z,6.30
2023-04-17T15:31:12.437Z,6.10
2023-04-17T15:33:46.102Z,5.80
2023-04-17T15:36:18.486Z,7.80
2023-04-17T15:38:50.791Z,6.30
2023-04-17T15:41:23.051Z,5.50
2023-04-17T15:43:55.533Z,6.00
2023-04-17T15:46:28.747Z,5.90
2023-04-17T15:49:08.888Z,5.80
2023-04-17T15:51:41.825Z,6.10
2023-04-17T15:54:14.237Z,6.90
2023-04-17T15:56:46.772Z,5.50
2023-04-17T15:59:19.146Z,7.70
2023-04-17T16:01:53.254Z,7.50
2023-04-17T16:04:25.739Z,5.90
2023-04-17T16:06:58.194Z,7.20
2023-04-17T16:09:30.752Z,7.40
2023-04-17T16:12:05.571Z,7.30
2023-04-17T16:14:38.135Z,6.90
2023-04-17T16:17:10.450Z,6.50
2023-04-17T16:19:42.875Z,7.50
2023-04-17T16:22:15.212Z,7.30
2023-04-17T16:24:47.911Z,11.40
2023-04-17T16:27:20.313Z,10.30
2023-04-17T16:29:52.557Z,6.90
2023-04-17T16:32:26.017Z,8.80
2023-04-17T16:34:58.398Z,6.50
2023-04-17T16:37:30.688Z,7.40
2023-04-17T16:40:05.292Z,6.30
2023-04-17T16:42:37.894Z,7.20
2023-04-17T16:45:11.541Z,6.00
2023-04-17T16:47:43.833Z,5.10
2023-04-17T16:50:16.291Z,7.00
2023-04-17T16:52:49.744Z,7.50
2023-04-17T16:55:21.993Z,6.60
2023-04-17T16:57:55.741Z,6.30
2023-04-17T17:00:28.015Z,6.10
2023-04-17T17:03:00.695Z,7.20
2023-04-17T17:05:33.334Z,6.60
2023-04-17T17:08:06.113Z,5.10
2023-04-17T17:10:38.465Z,7.60
2023-04-17T17:13:11.073Z,6.70
2023-04-17T17:15:44.122Z,6.20
2023-04-17T17:18:16.454Z,6.20
2023-04-17T17:20:54.406Z,6.60
2023-04-17T17:23:36.968Z,5.30
2023-04-17T17:26:09.557Z,6.90
2023-04-17T17:28:41.980Z,5.00
2023-04-17T17:31:14.420Z,7.40
2023-04-17T17:33:50.020Z,6.80
2023-04-17T17:38:56.213Z,6.70
2023-04-17T17:41:28.794Z,7.50
2023-04-17T17:44:01.072Z,6.50
2023-04-17T17:46:34.409Z,7.50
2023-04-17T17:49:06.893Z,6.10
2023-04-17T17:51:39.295Z,4.90
2023-04-17T17:54:13.198Z,7.60
2023-04-17T17:56:45.753Z,8.30
2023-04-17T17:59:18.101Z,6.30
2023-04-17T18:01:50.418Z,6.50
2023-04-17T18:04:22.928Z,7.20
2023-04-17T18:06:55.707Z,7.50
2023-04-17T18:09:28.077Z,6.30
2023-04-17T18:12:01.992Z,7.30
2023-04-17T18:14:34.214Z,7.50
2023-04-17T18:17:06.668Z,8.00
2023-04-17T18:19:41.965Z,7.50
2023-04-17T18:22:14.270Z,6.70
2023-04-17T18:24:46.573Z,8.20
2023-04-17T18:27:20.263Z,7.20
2023-04-17T18:29:52.653Z,6.90
2023-04-17T18:32:25.086Z,7.90
2023-04-17T18:34:57.404Z,7.70
2023-04-17T18:37:29.943Z,7.20
2023-04-17T18:40:02.355Z,6.90
2023-04-17T18:42:34.847Z,6.10
2023-04-17T18:45:08.593Z,6.80
2023-04-17T18:47:41.009Z,6.30
2023-04-17T18:50:15.073Z,7.40
2023-04-17T18:52:50.865Z,8.40
2023-04-17T18:55:23.980Z,8.10
2023-04-17T18:57:56.326Z,7.30
2023-04-17T19:00:28.934Z,7.50
2023-04-17T19:03:01.575Z,4.70
2023-04-17T19:05:34.114Z,8.10
2023-04-17T19:08:06.645Z,7.70
2023-04-17T19:10:41.532Z,6.40
2023-04-17T19:13:14.050Z,5.20
2023-04-17T19:15:48.315Z,6.10
2023-04-17T19:18:20.644Z,5.00
2023-04-17T19:20:53.114Z,5.80
2023-04-17T19:23:25.698Z,6.40
2023-04-17T19:25:58.059Z,4.60
2023-04-17T19:28:30.563Z,4.90
2023-04-17T19:31:03.174Z,4.70
2023-04-17T19:33:35.879Z,6.00
2023-04-17T19:36:08.303Z,4.30
2023-04-17T19:38:40.671Z,6.60
2023-04-17T19:41:18.500Z,5.40
2023-04-17T19:43:53.740Z,4.60
2023-04-17T19:46:27.618Z,6.10
2023-04-17T19:49:00.288Z,4.90
2023-04-17T19:51:32.672Z,5.20
2023-04-17T19:54:08.012Z,5.50
2023-04-17T19:56:40.476Z,7.00
2023-04-17T19:59:13.701Z,5.10
2023-04-17T20:01:46.306Z,4.00
2023-04-17T20:04:19.069Z,4.70
2023-04-17T20:06:51.746Z,4.70
2023-04-17T20:09:24.370Z,5.90
2023-04-17T20:11:56.782Z,5.40
2023-04-17T20:14:29.442Z,4.90
2023-04-17T20:17:02.142Z,3.80
2023-04-17T20:19:34.512Z,3.80
2023-04-17T20:22:07.455Z,3.60
2023-04-17T20:24:39.906Z,4.10
2023-04-17T20:27:12.361Z,5.70
2023-04-17T20:29:44.670Z,5.90
2023-04-17T20:32:18.006Z,5.30
2023-04-17T20:34:50.435Z,4.40
2023-04-17T20:37:23.903Z,5.20
2023-04-17T20:39:56.365Z,4.50
2023-04-17T20:42:28.792Z,5.30
2023-04-17T20:45:01.207Z,4.30
2023-04-17T20:47:33.642Z,4.70
2023-04-17T20:50:06.659Z,5.00
2023-04-17T20:52:39.224Z,4.80
2023-04-17T20:55:12.200Z,5.60
2023-04-17T20:57:44.486Z,5.10
2023-04-17T21:00:17.576Z,5.00
2023-04-17T21:02:49.974Z,5.10
2023-04-17T21:05:22.608Z,5.10
2023-04-17T21:07:57.846Z,6.20
2023-04-17T21:10:30.319Z,5.90
2023-04-17T21:13:02.660Z,7.60
2023-04-17T21:15:35.321Z,4.70
2023-04-17T21:18:07.841Z,5.40
2023-04-17T21:20:42.231Z,4.50
2023-04-17T21:23:14.836Z,5.60
2023-04-17T21:25:47.220Z,5.60
2023-04-17T21:28:19.482Z,6.50
2023-04-17T21:30:51.924Z,5.60
2023-04-17T21:33:24.258Z,7.20
2023-04-17T21:35:56.662Z,4.70
2023-04-17T21:38:29.413Z,5.80
2023-04-17T21:41:01.748Z,5.40
2023-04-17T21:43:34.501Z,5.20
2023-04-17T21:46:10.115Z,6.70
2023-04-17T21:48:42.808Z,5.20
2023-04-17T21:51:15.257Z,5.30
2023-04-17T21:53:47.616Z,4.50
2023-04-17T21:56:22.111Z,5.30
2023-04-17T21:58:54.652Z,5.70
2023-04-17T22:01:27.185Z,7.10
2023-04-17T22:03:59.815Z,6.20
2023-04-17T22:06:32.237Z,6.80
2023-04-17T22:09:05.402Z,5.40
2023-04-17T22:11:38.870Z,7.20
2023-04-17T22:14:11.545Z,6.10
2023-04-17T22:16:44.680Z,7.00
2023-04-17T22:19:17.205Z,5.60
2023-04-17T22:21:49.480Z,6.50
2023-04-17T22:24:21.882Z,7.20
2023-04-17T22:26:54.271Z,5.30
2023-04-17T22:29:26.613Z,5.80
2023-04-17T22:31:58.973Z,6.10
2023-04-17T22:34:32.628Z,7.40
2023-04-17T22:37:04.944Z,6.10
2023-04-17T22:39:37.421Z,6.40
2023-04-17T22:42:09.743Z,5.00
2023-04-17T22:44:42.138Z,7.60
2023-04-17T22:47:14.578Z,5.70
2023-04-17T22:49:46.969Z,7.00
2023-04-17T22:52:19.678Z,7.10
2023-04-17T22:54:52.101Z,7.80
2023-04-17T22:57:25.358Z,6.30
2023-04-17T22:59:57.641Z,6.40
2023-04-17T23:02:30.106Z,6.20
2023-04-17T23:05:02.606Z,6.10
2023-04-17T23:07:35.177Z,6.70
2023-04-17T23:10:08.671Z,9.10
2023-04-17T23:12:40.978Z,8.50
2023-04-17T23:15:14.756Z,7.70
2023-04-17T23:17:47.327Z,6.20
2023-04-17T23:20:20.494Z,6.20
2023-04-17T23:22:53.156Z,7.70
2023-04-17T23:25:25.388Z,6.00
2023-04-17T23:27:57.742Z,7.70
2023-04-17T23:30:30.156Z,7.90
2023-04-17T23:33:02.593Z,7.70
2023-04-17T23:35:35.033Z,6.50
2023-04-17T23:38:07.462Z,6.80
2023-04-17T23:40:39.728Z,7.30
2023-04-17T23:43:11.979Z,5.50
2023-04-17T23:45:44.191Z,7.20
2023-04-17T23:48:16.422Z,7.50
2023-04-17T23:50:48.831Z,6.40
2023-04-17T23:53:21.166Z,6.70
2023-04-17T23:55:53.573Z,6.90
2023-04-17T23:58:26.125Z,8.30
